sensor_id;sensor_type;location;lat;lon;timestamp;pressure;altitude;pressure_sealevel;temperature;humidity
25156;BME280;71253;51.496;7.606;2023-08-21T00:03:51;100833.06;;;16.08;95.96
25156;BME280;71253;51.496;7.606;2023-08-21T00:08:52;100825.47;;;15.82;97.56
25156;BME280;71253;51.496;7.606;2023-08-21T00:13:54;100819.53;;;15.67;99.07
25156;BME280;71253;51.496;7.606;2023-08-21T00:18:56;100825.63;;;15.59;100.00
25156;BME280;71253;51.496;7.606;2023-08-21T00:23:58;100818.66;;;15.62;100.00
25156;BME280;71253;51.496;7.606;2023-08-21T00:28:59;100831.78;;;15.53;100.00
25156;BME280;71253;51.496;7.606;2023-08-21T00:34:01;100831.84;;;15.42;100.00
25156;BME280;71253;51.496;7.606;2023-08-21T00:39:02;100839.81;;;15.24;100.00
25156;BME280;71253;51.496;7.606;2023-08-21T00:44:04;100847.69;;;15.10;100.00
25156;BME280;71253;51.496;7.606;2023-08-21T00:49:05;100839.88;;;15.10;100.00
25156;BME280;71253;51.496;7.606;2023-08-21T00:54:07;100845.06;;;15.16;100.00
25156;BME280;71253;51.496;7.606;2023-08-21T00:59:09;100834.63;;;15.19;100.00
25156;BME280;71253;51.496;7.606;2023-08-21T01:04:11;100837.28;;;15.12;100.00
25156;BME280;71253;51.496;7.606;2023-08-21T01:09:33;100838.13;;;15.17;100.00
25156;BME280;71253;51.496;7.606;2023-08-21T01:14:48;100832.91;;;15.18;100.00
25156;BME280;71253;51.496;7.606;2023-08-21T01:19:52;100840.69;;;15.21;100.00
25156;BME280;71253;51.496;7.606;2023-08-21T01:24:55;100848.50;;;15.21;100.00
25156;BME280;71253;51.496;7.606;2023-08-21T01:29:57;100849.44;;;15.10;100.00
25156;BME280;71253;51.496;7.606;2023-08-21T01:35:00;100851.16;;;15.14;100.00
25156;BME280;71253;51.496;7.606;2023-08-21T01:40:04;100846.88;;;15.02;100.00
25156;BME280;71253;51.496;7.606;2023-08-21T01:45:06;100854.78;;;14.90;100.00
25156;BME280;71253;51.496;7.606;2023-08-21T01:50:08;100861.72;;;14.83;100.00
25156;BME280;71253;51.496;7.606;2023-08-21T01:55:10;100865.25;;;14.71;100.00
25156;BME280;71253;51.496;7.606;2023-08-21T02:00:12;100848.75;;;14.72;100.00
25156;BME280;71253;51.496;7.606;2023-08-21T02:05:17;100851.34;;;14.77;100.00
25156;BME280;71253;51.496;7.606;2023-08-21T02:10:19;100839.91;;;15.04;100.00
25156;BME280;71253;51.496;7.606;2023-08-21T02:15:20;100838.06;;;15.24;100.00
25156;BME280;71253;51.496;7.606;2023-08-21T02:20:22;100832.91;;;15.15;100.00
25156;BME280;71253;51.496;7.606;2023-08-21T02:25:24;100839.16;;;14.85;100.00
25156;BME280;71253;51.496;7.606;2023-08-21T02:30:27;100838.38;;;14.60;100.00
25156;BME280;71253;51.496;7.606;2023-08-21T02:35:28;100831.47;;;14.53;100.00
25156;BME280;71253;51.496;7.606;2023-08-21T02:40:30;100834.88;;;14.75;100.00
25156;BME280;71253;51.496;7.606;2023-08-21T02:45:31;100827.91;;;14.77;100.00
25156;BME280;71253;51.496;7.606;2023-08-21T02:50:33;100836.66;;;14.56;100.00
25156;BME280;71253;51.496;7.606;2023-08-21T02:55:35;100838.41;;;14.59;100.00
25156;BME280;71253;51.496;7.606;2023-08-21T03:00:36;100842.69;;;14.75;100.00
25156;BME280;71253;51.496;7.606;2023-08-21T03:05:38;100840.91;;;14.82;100.00
25156;BME280;71253;51.496;7.606;2023-08-21T03:10:39;100847.03;;;14.71;100.00
25156;BME280;71253;51.496;7.606;2023-08-21T03:15:41;100843.63;;;14.46;100.00
25156;BME280;71253;51.496;7.606;2023-08-21T03:20:46;100844.50;;;14.39;100.00
25156;BME280;71253;51.496;7.606;2023-08-21T03:25:48;100834.94;;;14.43;100.00
25156;BME280;71253;51.496;7.606;2023-08-21T03:30:53;100836.69;;;14.50;100.00
25156;BME280;71253;51.496;7.606;2023-08-21T03:35:55;100834.91;;;14.46;100.00
25156;BME280;71253;51.496;7.606;2023-08-21T03:40:59;100839.25;;;14.68;100.00
25156;BME280;71253;51.496;7.606;2023-08-21T03:46:01;100840.91;;;14.77;100.00
25156;BME280;71253;51.496;7.606;2023-08-21T03:51:03;100848.72;;;14.79;100.00
25156;BME280;71253;51.496;7.606;2023-08-21T03:56:05;100841.00;;;14.63;100.00
25156;BME280;71253;51.496;7.606;2023-08-21T04:01:06;100842.72;;;14.57;100.00
25156;BME280;71253;51.496;7.606;2023-08-21T04:06:08;100841.03;;;14.53;100.00
25156;BME280;71253;51.496;7.606;2023-08-21T04:11:10;100838.41;;;14.54;100.00
25156;BME280;71253;51.496;7.606;2023-08-21T04:16:11;100837.44;;;14.78;100.00
25156;BME280;71253;51.496;7.606;2023-08-21T04:21:15;100839.16;;;14.85;100.00
25156;BME280;71253;51.496;7.606;2023-08-21T04:26:16;100838.31;;;14.82;100.00
25156;BME280;71253;51.496;7.606;2023-08-21T04:31:18;100839.16;;;14.87;100.00
25156;BME280;71253;51.496;7.606;2023-08-21T04:36:22;100841.03;;;14.57;100.00
25156;BME280;71253;51.496;7.606;2023-08-21T04:41:24;100842.72;;;14.46;100.00
25156;BME280;71253;51.496;7.606;2023-08-21T04:46:26;100856.66;;;14.50;100.00
25156;BME280;71253;51.496;7.606;2023-08-21T04:51:29;100855.75;;;14.46;100.00
25156;BME280;71253;51.496;7.606;2023-08-21T04:56:33;100867.91;;;14.59;100.00
25156;BME280;71253;51.496;7.606;2023-08-21T05:01:36;100860.88;;;14.86;100.00
25156;BME280;71253;51.496;7.606;2023-08-21T05:06:37;100867.59;;;15.30;100.00
25156;BME280;71253;51.496;7.606;2023-08-21T05:11:39;100868.16;;;15.74;100.00
25156;BME280;71253;51.496;7.606;2023-08-21T05:16:41;100873.09;;;16.10;100.00
25156;BME280;71253;51.496;7.606;2023-08-21T05:21:43;100860.78;;;16.21;100.00
25156;BME280;71253;51.496;7.606;2023-08-21T05:26:45;100869.69;;;15.97;99.19
25156;BME280;71253;51.496;7.606;2023-08-21T05:31:47;100881.09;;;15.87;100.00
25156;BME280;71253;51.496;7.606;2023-08-21T05:36:48;100869.69;;;16.00;100.00
25156;BME280;71253;51.496;7.606;2023-08-21T05:41:50;100871.97;;;16.30;99.92
25156;BME280;71253;51.496;7.606;2023-08-21T05:46:53;100864.50;;;16.81;96.96
25156;BME280;71253;51.496;7.606;2023-08-21T05:51:56;100850.59;;;17.40;90.16
25156;BME280;71253;51.496;7.606;2023-08-21T05:56:58;100867.22;;;17.93;88.21
25156;BME280;71253;51.496;7.606;2023-08-21T06:02:00;100866.09;;;18.55;82.48
25156;BME280;71253;51.496;7.606;2023-08-21T06:07:02;100847.13;;;19.26;79.13
25156;BME280;71253;51.496;7.606;2023-08-21T06:12:04;100855.97;;;20.28;74.59
25156;BME280;71253;51.496;7.606;2023-08-21T06:17:09;100856.00;;;22.00;66.52
25156;BME280;71253;51.496;7.606;2023-08-21T06:22:10;100845.63;;;24.02;60.62
25156;BME280;71253;51.496;7.606;2023-08-21T06:27:12;100857.25;;;25.71;53.84
25156;BME280;71253;51.496;7.606;2023-08-21T06:32:14;100856.69;;;27.00;48.75
25156;BME280;71253;51.496;7.606;2023-08-21T06:37:15;100858.38;;;26.19;52.06
25156;BME280;71253;51.496;7.606;2023-08-21T06:42:17;100862.97;;;25.98;51.56
25156;BME280;71253;51.496;7.606;2023-08-21T06:47:23;100860.56;;;27.73;46.88
25156;BME280;71253;51.496;7.606;2023-08-21T06:52:26;100859.78;;;27.56;46.97
25156;BME280;71253;51.496;7.606;2023-08-21T06:57:27;100859.56;;;24.86;54.18
25156;BME280;71253;51.496;7.606;2023-08-21T07:02:29;100873.16;;;24.97;56.32
25156;BME280;71253;51.496;7.606;2023-08-21T07:07:31;100880.94;;;23.57;60.21
25156;BME280;71253;51.496;7.606;2023-08-21T07:12:32;100867.84;;;22.64;64.37
25156;BME280;71253;51.496;7.606;2023-08-21T07:17:34;100860.41;;;25.43;55.71
25156;BME280;71253;51.496;7.606;2023-08-21T07:22:35;100866.22;;;27.97;49.18
25156;BME280;71253;51.496;7.606;2023-08-21T07:27:37;100862.91;;;27.78;49.81
25156;BME280;71253;51.496;7.606;2023-08-21T07:32:39;100864.56;;;27.81;49.61
25156;BME280;71253;51.496;7.606;2023-08-21T07:37:44;100856.19;;;29.44;45.34
25156;BME280;71253;51.496;7.606;2023-08-21T07:42:46;100856.13;;;28.33;48.61
25156;BME280;71253;51.496;7.606;2023-08-21T07:47:48;100860.63;;;29.30;44.67
25156;BME280;71253;51.496;7.606;2023-08-21T07:52:53;100863.56;;;28.42;46.81
25156;BME280;71253;51.496;7.606;2023-08-21T07:57:55;100857.19;;;29.28;45.83
25156;BME280;71253;51.496;7.606;2023-08-21T08:02:56;100867.31;;;27.00;50.16
25156;BME280;71253;51.496;7.606;2023-08-21T08:07:58;100865.59;;;26.83;52.53
25156;BME280;71253;51.496;7.606;2023-08-21T08:12:59;100860.34;;;26.15;51.46
25156;BME280;71253;51.496;7.606;2023-08-21T08:18:02;100871.84;;;25.07;54.09
25156;BME280;71253;51.496;7.606;2023-08-21T08:23:04;100862.00;;;25.83;52.83
25156;BME280;71253;51.496;7.606;2023-08-21T08:28:06;100860.56;;;26.11;51.63
25156;BME280;71253;51.496;7.606;2023-08-21T08:33:07;100861.25;;;26.98;49.30
25156;BME280;71253;51.496;7.606;2023-08-21T08:38:09;100866.22;;;27.97;48.23
25156;BME280;71253;51.496;7.606;2023-08-21T08:43:11;100855.41;;;28.45;45.63
25156;BME280;71253;51.496;7.606;2023-08-21T08:48:13;100855.44;;;28.29;46.23
25156;BME280;71253;51.496;7.606;2023-08-21T08:53:15;100862.91;;;27.16;49.61
25156;BME280;71253;51.496;7.606;2023-08-21T08:58:17;100856.22;;;27.09;49.72
25156;BME280;71253;51.496;7.606;2023-08-21T09:03:19;100863.66;;;28.69;44.04
25156;BME280;71253;51.496;7.606;2023-08-21T09:08:21;100862.13;;;27.46;47.55
25156;BME280;71253;51.496;7.606;2023-08-21T09:13:22;100851.53;;;29.20;42.73
25156;BME280;71253;51.496;7.606;2023-08-21T09:18:24;100852.34;;;26.50;48.43
25156;BME280;71253;51.496;7.606;2023-08-21T09:23:28;100850.31;;;27.82;45.74
25156;BME280;71253;51.496;7.606;2023-08-21T09:28:31;100851.28;;;26.70;50.06
25156;BME280;71253;51.496;7.606;2023-08-21T09:33:33;100851.66;;;28.90;45.31
25156;BME280;71253;51.496;7.606;2023-08-21T09:38:36;100852.31;;;28.22;44.84
25156;BME280;71253;51.496;7.606;2023-08-21T09:43:42;100852.03;;;28.84;44.12
25156;BME280;71253;51.496;7.606;2023-08-21T09:48:44;100838.66;;;29.27;43.02
25156;BME280;71253;51.496;7.606;2023-08-21T09:53:49;100836.75;;;28.73;43.15
25156;BME280;71253;51.496;7.606;2023-08-21T09:58:51;100854.59;;;28.86;44.41
25156;BME280;71253;51.496;7.606;2023-08-21T10:03:53;100848.69;;;28.23;44.55
25156;BME280;71253;51.496;7.606;2023-08-21T10:08:56;100837.50;;;29.31;43.82
25156;BME280;71253;51.496;7.606;2023-08-21T10:13:58;100845.91;;;29.92;42.14
25156;BME280;71253;51.496;7.606;2023-08-21T10:19:03;100833.91;;;28.48;44.70
25156;BME280;71253;51.496;7.606;2023-08-21T10:24:05;100832.22;;;29.83;45.30
25156;BME280;71253;51.496;7.606;2023-08-21T10:29:08;100826.06;;;29.02;43.98
25156;BME280;71253;51.496;7.606;2023-08-21T10:34:12;100826.88;;;29.17;42.67
25156;BME280;71253;51.496;7.606;2023-08-21T10:49:45;100833.97;;;29.03;44.03
25156;BME280;71253;51.496;7.606;2023-08-21T10:54:48;100834.41;;;27.50;47.00
25156;BME280;71253;51.496;7.606;2023-08-21T11:04:59;100818.78;;;28.48;44.77
25156;BME280;71253;51.496;7.606;2023-08-21T11:10:00;100823.09;;;28.92;43.27
25156;BME280;71253;51.496;7.606;2023-08-21T11:15:05;100825.47;;;29.11;43.97
25156;BME280;71253;51.496;7.606;2023-08-21T11:20:08;100832.53;;;29.79;44.84
25156;BME280;71253;51.496;7.606;2023-08-21T11:25:09;100829.16;;;28.67;44.67
25156;BME280;71253;51.496;7.606;2023-08-21T11:30:11;100833.25;;;28.44;46.13
25156;BME280;71253;51.496;7.606;2023-08-21T11:35:13;100822.91;;;28.10;49.09
25156;BME280;71253;51.496;7.606;2023-08-21T11:40:15;100829.84;;;27.98;46.39
25156;BME280;71253;51.496;7.606;2023-08-21T11:45:20;100829.50;;;27.58;48.46
25156;BME280;71253;51.496;7.606;2023-08-21T11:50:22;100824.72;;;27.95;48.27
25156;BME280;71253;51.496;7.606;2023-08-21T11:55:23;100829.25;;;27.93;46.73
25156;BME280;71253;51.496;7.606;2023-08-21T12:00:28;100822.69;;;28.57;47.20
25156;BME280;71253;51.496;7.606;2023-08-21T12:05:30;100826.41;;;27.66;46.41
25156;BME280;71253;51.496;7.606;2023-08-21T12:10:32;100821.88;;;28.12;47.16
25156;BME280;71253;51.496;7.606;2023-08-21T12:15:34;100818.66;;;28.93;45.09
25156;BME280;71253;51.496;7.606;2023-08-21T12:20:35;100819.81;;;28.17;48.14
25156;BME280;71253;51.496;7.606;2023-08-21T12:25:37;100814.13;;;28.66;43.94
25156;BME280;71253;51.496;7.606;2023-08-21T12:30:38;100817.19;;;28.46;47.18
25156;BME280;71253;51.496;7.606;2023-08-21T12:35:40;100817.38;;;27.98;44.16
25156;BME280;71253;51.496;7.606;2023-08-21T12:40:42;100814.69;;;27.70;48.04
25156;BME280;71253;51.496;7.606;2023-08-21T12:45:43;100811.41;;;28.09;48.08
25156;BME280;71253;51.496;7.606;2023-08-21T12:50:45;100813.00;;;27.37;47.18
25156;BME280;71253;51.496;7.606;2023-08-21T12:55:47;100818.50;;;27.03;46.82
25156;BME280;71253;51.496;7.606;2023-08-21T13:00:48;100806.34;;;27.30;47.90
25156;BME280;71253;51.496;7.606;2023-08-21T13:05:50;100806.16;;;26.86;47.69
25156;BME280;71253;51.496;7.606;2023-08-21T13:10:52;100800.84;;;27.01;47.47
25156;BME280;71253;51.496;7.606;2023-08-21T13:15:54;100800.31;;;27.42;49.72
25156;BME280;71253;51.496;7.606;2023-08-21T13:20:55;100799.81;;;27.66;49.76
25156;BME280;71253;51.496;7.606;2023-08-21T13:26:01;100802.81;;;27.75;45.45
25156;BME280;71253;51.496;7.606;2023-08-21T13:31:02;100809.78;;;27.16;47.75
25156;BME280;71253;51.496;7.606;2023-08-21T13:36:04;100799.25;;;27.15;47.27
25156;BME280;71253;51.496;7.606;2023-08-21T13:41:07;100797.78;;;27.71;48.71
25156;BME280;71253;51.496;7.606;2023-08-21T13:46:09;100799.69;;;28.27;48.85
25156;BME280;71253;51.496;7.606;2023-08-21T13:51:10;100792.16;;;28.48;46.39
25156;BME280;71253;51.496;7.606;2023-08-21T13:56:12;100798.09;;;27.35;46.35
25156;BME280;71253;51.496;7.606;2023-08-21T14:01:13;100792.72;;;27.36;47.36
25156;BME280;71253;51.496;7.606;2023-08-21T14:06:15;100787.41;;;27.50;46.43
25156;BME280;71253;51.496;7.606;2023-08-21T14:11:17;100779.31;;;27.98;47.61
25156;BME280;71253;51.496;7.606;2023-08-21T14:16:18;100766.41;;;28.20;45.41
25156;BME280;71253;51.496;7.606;2023-08-21T14:21:20;100774.09;;;28.25;46.92
25156;BME280;71253;51.496;7.606;2023-08-21T14:26:22;100766.94;;;27.07;47.50
25156;BME280;71253;51.496;7.606;2023-08-21T14:31:23;100762.22;;;26.80;49.19
25156;BME280;71253;51.496;7.606;2023-08-21T14:36:25;100762.59;;;26.41;49.89
25156;BME280;71253;51.496;7.606;2023-08-21T14:41:27;100758.81;;;25.96;51.18
25156;BME280;71253;51.496;7.606;2023-08-21T14:46:28;100759.38;;;26.18;49.54
25156;BME280;71253;51.496;7.606;2023-08-21T14:51:35;100765.97;;;26.11;50.27
25156;BME280;71253;51.496;7.606;2023-08-21T14:56:37;100762.53;;;26.09;50.73
25156;BME280;71253;51.496;7.606;2023-08-21T15:01:38;100751.22;;;26.39;50.97
25156;BME280;71253;51.496;7.606;2023-08-21T15:06:40;100737.31;;;26.51;49.12
25156;BME280;71253;51.496;7.606;2023-08-21T15:11:42;100729.78;;;26.59;48.65
25156;BME280;71253;51.496;7.606;2023-08-21T15:16:43;100739.69;;;27.03;49.00
25156;BME280;71253;51.496;7.606;2023-08-21T15:21:45;100732.66;;;27.48;46.59
25156;BME280;71253;51.496;7.606;2023-08-21T15:26:46;100724.50;;;27.81;46.18
25156;BME280;71253;51.496;7.606;2023-08-21T15:31:48;100726.44;;;27.63;47.04
25156;BME280;71253;51.496;7.606;2023-08-21T15:36:50;100717.34;;;27.37;48.25
25156;BME280;71253;51.496;7.606;2023-08-21T15:41:51;100725.31;;;26.91;50.78
25156;BME280;71253;51.496;7.606;2023-08-21T15:46:53;100722.00;;;26.56;50.26
25156;BME280;71253;51.496;7.606;2023-08-21T15:52:02;100732.28;;;26.29;51.43
25156;BME280;71253;51.496;7.606;2023-08-21T15:57:04;100717.34;;;25.95;52.17
25156;BME280;71253;51.496;7.606;2023-08-21T16:02:05;100715.34;;;25.48;51.87
25156;BME280;71253;51.496;7.606;2023-08-21T16:07:09;100732.31;;;25.44;54.50
25156;BME280;71253;51.496;7.606;2023-08-21T16:12:10;100720.38;;;25.87;52.19
25156;BME280;71253;51.496;7.606;2023-08-21T16:17:12;100719.22;;;26.26;51.57
25156;BME280;71253;51.496;7.606;2023-08-21T16:22:14;100717.28;;;26.77;50.16
25156;BME280;71253;51.496;7.606;2023-08-21T16:27:15;100707.00;;;26.55;49.60
25156;BME280;71253;51.496;7.606;2023-08-21T16:32:17;100711.41;;;26.23;49.59
25156;BME280;71253;51.496;7.606;2023-08-21T16:37:19;100701.06;;;25.85;50.68
25156;BME280;71253;51.496;7.606;2023-08-21T16:42:20;100701.56;;;25.41;52.42
25156;BME280;71253;51.496;7.606;2023-08-21T16:47:22;100705.50;;;25.67;52.52
25156;BME280;71253;51.496;7.606;2023-08-21T16:52:24;100693.91;;;25.53;51.42
25156;BME280;71253;51.496;7.606;2023-08-21T16:57:25;100687.28;;;25.27;51.83
25156;BME280;71253;51.496;7.606;2023-08-21T17:02:27;100684.56;;;24.75;53.16
25156;BME280;71253;51.496;7.606;2023-08-21T17:07:29;100679.47;;;24.53;54.11
25156;BME280;71253;51.496;7.606;2023-08-21T17:12:30;100673.09;;;24.38;55.18
25156;BME280;71253;51.496;7.606;2023-08-21T17:17:32;100685.84;;;24.28;55.54
25156;BME280;71253;51.496;7.606;2023-08-21T17:22:34;100684.84;;;24.12;56.81
25156;BME280;71253;51.496;7.606;2023-08-21T17:27:36;100692.13;;;24.07;56.99
25156;BME280;71253;51.496;7.606;2023-08-21T17:32:37;100683.69;;;23.99;55.68
25156;BME280;71253;51.496;7.606;2023-08-21T17:37:39;100689.59;;;23.85;55.75
25156;BME280;71253;51.496;7.606;2023-08-21T17:42:41;100679.50;;;23.74;56.13
25156;BME280;71253;51.496;7.606;2023-08-21T17:47:42;100687.91;;;23.64;57.39
25156;BME280;71253;51.496;7.606;2023-08-21T17:52:44;100686.88;;;23.25;58.76
25156;BME280;71253;51.496;7.606;2023-08-21T17:57:46;100695.00;;;22.99;59.38
25156;BME280;71253;51.496;7.606;2023-08-21T18:02:47;100693.47;;;22.71;59.82
25156;BME280;71253;51.496;7.606;2023-08-21T18:07:49;100700.56;;;22.47;61.78
25156;BME280;71253;51.496;7.606;2023-08-21T18:12:51;100701.78;;;22.15;63.51
25156;BME280;71253;51.496;7.606;2023-08-21T18:17:53;100701.78;;;21.90;64.29
25156;BME280;71253;51.496;7.606;2023-08-21T18:22:54;100700.84;;;21.68;65.48
25156;BME280;71253;51.496;7.606;2023-08-21T18:27:56;100701.75;;;21.42;65.97
25156;BME280;71253;51.496;7.606;2023-08-21T18:32:57;100699.81;;;21.47;65.33
25156;BME280;71253;51.496;7.606;2023-08-21T18:37:59;100704.56;;;21.37;65.72
25156;BME280;71253;51.496;7.606;2023-08-21T18:43:01;100704.06;;;21.24;65.98
25156;BME280;71253;51.496;7.606;2023-08-21T18:48:04;100705.03;;;21.48;65.12
25156;BME280;71253;51.496;7.606;2023-08-21T18:53:06;100712.56;;;21.06;67.93
25156;BME280;71253;51.496;7.606;2023-08-21T18:58:08;100709.22;;;20.43;73.68
25156;BME280;71253;51.496;7.606;2023-08-21T19:03:10;100717.06;;;19.84;76.35
25156;BME280;71253;51.496;7.606;2023-08-21T19:08:11;100720.66;;;19.48;77.96
25156;BME280;71253;51.496;7.606;2023-08-21T19:13:13;100723.53;;;19.37;77.89
25156;BME280;71253;51.496;7.606;2023-08-21T19:18:15;100729.44;;;19.45;78.17
25156;BME280;71253;51.496;7.606;2023-08-21T19:23:16;100720.44;;;19.55;77.65
25156;BME280;71253;51.496;7.606;2023-08-21T19:28:18;100727.13;;;19.68;76.40
25156;BME280;71253;51.496;7.606;2023-08-21T19:33:20;100737.22;;;19.50;78.92
25156;BME280;71253;51.496;7.606;2023-08-21T19:38:22;100724.13;;;19.14;80.65
25156;BME280;71253;51.496;7.606;2023-08-21T19:43:23;100738.81;;;18.84;82.48
25156;BME280;71253;51.496;7.606;2023-08-21T19:48:25;100731.44;;;18.61;83.07
25156;BME280;71253;51.496;7.606;2023-08-21T19:53:27;100736.91;;;18.50;84.26
25156;BME280;71253;51.496;7.606;2023-08-21T19:58:30;100740.44;;;18.48;85.61
25156;BME280;71253;51.496;7.606;2023-08-21T20:03:31;100737.81;;;18.48;86.26
25156;BME280;71253;51.496;7.606;2023-08-21T20:08:33;100733.66;;;18.37;86.06
25156;BME280;71253;51.496;7.606;2023-08-21T20:13:35;100733.91;;;18.27;87.06
25156;BME280;71253;51.496;7.606;2023-08-21T20:18:37;100734.56;;;18.36;86.65
25156;BME280;71253;51.496;7.606;2023-08-21T20:23:39;100729.72;;;18.18;87.23
25156;BME280;71253;51.496;7.606;2023-08-21T20:28:40;100733.69;;;17.93;88.13
25156;BME280;71253;51.496;7.606;2023-08-21T20:33:42;100740.25;;;17.69;89.22
25156;BME280;71253;51.496;7.606;2023-08-21T20:38:46;100728.34;;;17.49;89.88
25156;BME280;71253;51.496;7.606;2023-08-21T20:43:48;100738.28;;;17.30;90.69
25156;BME280;71253;51.496;7.606;2023-08-21T20:48:50;100741.97;;;17.19;90.97
25156;BME280;71253;51.496;7.606;2023-08-21T20:53:51;100745.63;;;17.08;91.08
25156;BME280;71253;51.496;7.606;2023-08-21T20:58:53;100744.13;;;16.91;91.19
25156;BME280;71253;51.496;7.606;2023-08-21T21:03:55;100739.84;;;16.85;92.16
25156;BME280;71253;51.496;7.606;2023-08-21T21:08:56;100740.69;;;16.89;92.55
25156;BME280;71253;51.496;7.606;2023-08-21T21:13:59;100734.56;;;16.91;92.28
25156;BME280;71253;51.496;7.606;2023-08-21T21:19:00;100736.81;;;17.14;90.41
25156;BME280;71253;51.496;7.606;2023-08-21T21:24:02;100727.50;;;16.96;91.53
25156;BME280;71253;51.496;7.606;2023-08-21T21:29:04;100723.59;;;16.62;92.02
25156;BME280;71253;51.496;7.606;2023-08-21T21:34:05;100728.22;;;16.41;92.80
25156;BME280;71253;51.496;7.606;2023-08-21T21:39:07;100714.34;;;16.39;93.85
25156;BME280;71253;51.496;7.606;2023-08-21T21:44:09;100714.28;;;16.44;94.06
25156;BME280;71253;51.496;7.606;2023-08-21T21:49:11;100708.16;;;16.45;94.64
25156;BME280;71253;51.496;7.606;2023-08-21T21:54:12;100707.19;;;16.53;93.10
25156;BME280;71253;51.496;7.606;2023-08-21T21:59:14;100706.34;;;16.53;92.16
25156;BME280;71253;51.496;7.606;2023-08-21T22:04:15;100709.25;;;16.28;93.00
25156;BME280;71253;51.496;7.606;2023-08-21T22:09:17;100698.25;;;16.02;93.96
25156;BME280;71253;51.496;7.606;2023-08-21T22:14:18;100698.34;;;15.96;95.55
25156;BME280;71253;51.496;7.606;2023-08-21T22:19:20;100681.38;;;16.30;94.78
25156;BME280;71253;51.496;7.606;2023-08-21T22:24:22;100680.91;;;16.64;91.89
25156;BME280;71253;51.496;7.606;2023-08-21T22:29:24;100675.91;;;16.49;91.97
25156;BME280;71253;51.496;7.606;2023-08-21T22:34:25;100666.50;;;16.37;93.17
25156;BME280;71253;51.496;7.606;2023-08-21T22:39:27;100679.09;;;16.03;93.80
25156;BME280;71253;51.496;7.606;2023-08-21T22:44:28;100684.66;;;15.75;95.13
25156;BME280;71253;51.496;7.606;2023-08-21T22:49:30;100693.53;;;15.56;96.72
25156;BME280;71253;51.496;7.606;2023-08-21T22:54:32;100694.47;;;15.47;97.26
25156;BME280;71253;51.496;7.606;2023-08-21T22:59:36;100689.31;;;15.41;98.28
25156;BME280;71253;51.496;7.606;2023-08-21T23:04:37;100681.50;;;15.41;98.50
25156;BME280;71253;51.496;7.606;2023-08-21T23:09:39;100679.78;;;15.39;99.05
25156;BME280;71253;51.496;7.606;2023-08-21T23:14:40;100672.81;;;15.38;99.66
25156;BME280;71253;51.496;7.606;2023-08-21T23:19:42;100660.59;;;15.43;99.41
25156;BME280;71253;51.496;7.606;2023-08-21T23:24:43;100665.88;;;15.40;99.99
25156;BME280;71253;51.496;7.606;2023-08-21T23:29:45;100666.69;;;15.45;100.00
25156;BME280;71253;51.496;7.606;2023-08-21T23:34:46;100670.19;;;15.42;100.00
25156;BME280;71253;51.496;7.606;2023-08-21T23:39:48;100675.41;;;15.41;100.00
25156;BME280;71253;51.496;7.606;2023-08-21T23:44:50;100662.31;;;15.47;99.98
25156;BME280;71253;51.496;7.606;2023-08-21T23:49:51;100648.53;;;15.36;100.00
25156;BME280;71253;51.496;7.606;2023-08-21T23:54:53;100648.38;;;15.48;100.00
25156;BME280;71253;51.496;7.606;2023-08-21T23:59:54;100645.94;;;15.33;99.80
